Thursday, March 23, 2017, 12:21 AM EDT
Back to Local

KMPO, Mt Pocono Pocono Mountains

Location: Pocono Summit, PA, United States Lat: 41.133
Local Time: 12:21 AM EDT ( 4:21 GMT) Lon: -75.383
Time Zone: US/Eastern Elev: 1915 ft

Show me the last for .
Show Decoded

2017-03-22 23:53 METAR KMPO 230353Z AUTO 33010KT 10SM CLR M11/M17 A3034 RMK AO2 SLP311 T11061167
                 =
2017-03-22 22:53 METAR KMPO 230253Z AUTO 33013G20KT 10SM CLR M11/M17 A3033 RMK AO2 SLP306
                 T11061172 51016 =
2017-03-22 21:53 METAR KMPO 230153Z AUTO 32014G20KT 10SM CLR M10/M18 A3031 RMK AO2 SLP298
                 T11001178 =
2017-03-22 20:53 METAR KMPO 230053Z AUTO 32011G22KT 10SM CLR M09/M18 A3030 RMK AO2 SLP296
                 T10941183 =
2017-03-22 19:53 METAR KMPO 222353Z AUTO 33009KT 300V010 10SM CLR M09/M18 A3028 RMK AO2 PK WND
                 32031/2304 SLP287 T10891183 11056 21089 53033 =
2017-03-22 18:53 METAR KMPO 222253Z AUTO 32017G27KT 10SM CLR M08/M19 A3023 RMK AO2 PK WND
                 32035/2223 SLP268 T10781189 =
2017-03-22 17:53 METAR KMPO 222153Z AUTO 32020G32KT 10SM CLR M07/M18 A3020 RMK AO2 PK WND
                 32036/2131 SLP255 T10671183 =
2017-03-22 16:53 METAR KMPO 222053Z AUTO 33021G31KT 10SM CLR M06/M18 A3018 RMK AO2 PK WND
                 31034/2020 SLP246 T10611183 53011 =
2017-03-22 15:53 METAR KMPO 221953Z AUTO 34020G32KT 10SM CLR M06/M17 A3016 RMK AO2 PK WND
                 33041/1927 SLP240 T10611172 =
2017-03-22 14:53 METAR KMPO 221853Z AUTO 33020G38KT 10SM CLR M06/M17 A3014 RMK AO2 PK WND
                 34041/1842 SLP233 T10611172 =
2017-03-22 13:53 METAR KMPO 221753Z AUTO 31019G35KT 10SM CLR M07/M17 A3014 RMK AO2 PK WND
                 32039/1715 SLP232 60000 T10671167 11056 21072 51021 =
2017-03-22 12:53 METAR KMPO 221653Z AUTO 32025G39KT 10SM CLR M07/M17 A3013 RMK AO2 PK WND
                 32040/1619 UPE1556 SLP230 P0000 T10671167 =
2017-03-22 12:11 METAR KMPO 221611Z AUTO 33023G33KT 10SM BKN033 BKN042 M07/M14 A3011 RMK AO2 PK
                 WND 31034/1558 UPE1556 P0000 T10721144 =
2017-03-22 11:53 METAR KMPO 221553Z AUTO 33018G33KT 10SM UP BKN029 OVC036 M07/M13 A3010 RMK AO2
                 PK WND 31036/1508 UPB12E22B47 SLP221 P0000 T10721133 =
2017-03-22 11:29 METAR KMPO 221529Z AUTO 32014G35KT 10SM BKN029 BKN035 M07/M14 A3008 RMK AO2 PK
                 WND 31036/1508 UPB12E22 P0000 T10671144 =
2017-03-22 11:17 METAR KMPO 221517Z AUTO 32026G36KT 10SM UP SCT024 BKN032 M07/M13 A3008 RMK AO2
                 PK WND 31036/1508 UPB12 P0000 T10721133 =
2017-03-22 10:53 METAR KMPO 221453Z AUTO 32020G32KT 9SM BKN026 OVC034 M07/M13 A3008 RMK AO2 PK
                 WND 29036/1355 UPB51E52SNB04E21B28E50 SLP211 P0000 60000 T10671133 53023 =
2017-03-22 10:26 METAR KMPO 221426Z AUTO 32022G31KT 9SM BKN026 BKN030 OVC035 M07/M12 A3006 RMK
                 AO2 PK WND 29036/1355 SNB04E21 P0000 T10671122 =
2017-03-22 09:53 METAR KMPO 221353Z AUTO 31019G33KT 9SM SCT025 BKN032 M06/M13 A3004 RMK AO2 PK
                 WND 31040/1258 SNB34E49 SLP196 P0000 T10611128 =
2017-03-22 08:53 METAR KMPO 221253Z AUTO 31022G36KT 10SM CLR M06/M14 A3001 RMK AO2 PK WND
                 31041/1237 SLP182 T10611144 =
2017-03-22 07:53 METAR KMPO 221153Z AUTO 31023G36KT 10SM SCT039 M06/M13 A2999 RMK AO2 PK WND
                 32036/1153 SLP173 60000 T10561128 10006 21056 53029 =
2017-03-22 06:53 METAR KMPO 221053Z AUTO 33019G33KT 10SM FEW021 BKN039 OVC049 M04/M11 A2996 RMK
                 AO2 PK WND 34033/1044 UPB36E46SNE35 SLP161 P0000 T10441111 =
2017-03-22 06:29 METAR KMPO 221029Z AUTO 32014G29KT 3SM -SN BKN019 BKN024 OVC030 M04/M07 A2995
                 RMK AO2 PK WND 34029/1023 P0000 T10441072 =
2017-03-22 06:25 METAR KMPO 221025Z AUTO 33019G29KT 1 3/4SM -SN BR BKN018 BKN024 OVC031 M04/M07
                 A2995 RMK AO2 PK WND 34029/1023 P0000 T10441067 =
2017-03-22 06:15 METAR KMPO 221015Z AUTO 33017G28KT 2 1/2SM -SN BR SCT018 BKN029 OVC060 M03/M06
                 A2994 RMK AO2 PK WND 32028/1013 P0000 T10331056 =
2017-03-22 05:53 METAR KMPO 220953Z AUTO 31019G28KT 9SM -SN BKN044 OVC055 M02/M08 A2992 RMK AO2
                 PK WND 30028/0952 SNB46 SLP145 P0000 T10221078 =
2017-03-22 04:53 METAR KMPO 220853Z AUTO 30015G21KT 10SM FEW039 M02/M09 A2990 RMK AO2 PK WND
                 31028/0805 SLP139 T10171089 53016 =
2017-03-22 03:53 METAR KMPO 220753Z AUTO 32019G27KT 10SM FEW040 SCT047 00/M06 A2987 RMK AO2 PK
                 WND 31027/0738 SLP127 T00001061 =
2017-03-22 02:53 METAR KMPO 220653Z AUTO 33008G16KT 10SM FEW046 01/M04 A2986 RMK AO2 SLP123
                 T00061044 =
2017-03-22 01:53 METAR KMPO 220553Z AUTO 31009KT 10SM CLR 02/M08 A2985 RMK AO2 SLP119 T00171078
                 10067 21033 53001 =
2017-03-22 00:53 METAR KMPO 220453Z AUTO 29007KT 10SM CLR 00/M08 A2984 RMK AO2 SLP119 T00001078
                 400891033 =

Support USWX by starting your Amazon purchase here.